Time;durP1;ratioP1;P1;durP2;ratioP2;P2;SDS_P1;SDS_P2;PMS_P1;PMS_P2;Temp;Humidity;BMP_temperature;BMP_pressure;BME280_temperature;BME280_humidity;BME280_pressure;Samples;Min_cycle;Max_cycle;Signal;HPM_P1;HPM_P2
2022/10/31 00:02:00;;;;;;;8.00;5.93;;;14.40;99.90;;;;;;5036735;28;20013;-63
2022/10/31 00:04:25;;;;;;;10.05;6.18;;;14.40;99.90;;;;;;5032709;28;20029;-63
2022/10/31 00:06:51;;;;;;;8.10;5.47;;;14.30;99.90;;;;;;5031506;28;20025;-63
2022/10/31 00:09:16;;;;;;;10.77;5.55;;;14.30;99.90;;;;;;5032818;28;20081;-63
2022/10/31 00:11:42;;;;;;;9.43;6.03;;;14.30;99.90;;;;;;5027143;28;20386;-63
2022/10/31 00:14:07;;;;;;;9.20;5.65;;;14.30;99.90;;;;;;5032627;28;20065;-63
2022/10/31 00:16:33;;;;;;;8.65;4.78;;;14.30;99.90;;;;;;5032635;28;20033;-63
2022/10/31 00:19:01;;;;;;;6.53;4.60;;;14.30;99.90;;;;;;5032164;28;20033;-63
2022/10/31 00:21:28;;;;;;;6.78;4.45;;;14.30;99.90;;;;;;5032474;28;20067;-63
2022/10/31 00:23:54;;;;;;;6.78;5.07;;;14.40;99.90;;;;;;5032769;28;20025;-63
2022/10/31 00:26:19;;;;;;;7.75;5.70;;;14.40;99.90;;;;;;5030108;28;20036;-63
2022/10/31 00:28:45;;;;;;;8.98;6.55;;;14.30;99.90;;;;;;5029754;28;20380;-63
2022/10/31 00:31:12;;;;;;;9.55;7.13;;;14.30;99.90;;;;;;5026812;28;20029;-63
2022/10/31 00:33:39;;;;;;;13.48;7.93;;;14.20;99.90;;;;;;5029352;28;20030;-63
2022/10/31 00:36:06;;;;;;;13.15;8.40;;;14.00;99.90;;;;;;5031363;28;20025;-63
2022/10/31 00:38:32;;;;;;;10.98;7.18;;;13.90;99.90;;;;;;5029706;28;20076;-63
2022/10/31 00:40:58;;;;;;;10.23;7.10;;;13.80;99.90;;;;;;5031982;28;20026;-63
2022/10/31 00:43:23;;;;;;;9.35;7.93;;;13.80;99.90;;;;;;5031939;28;20025;-64
2022/10/31 00:45:49;;;;;;;10.85;7.72;;;13.70;99.90;;;;;;5027443;28;20056;-63
2022/10/31 00:48:14;;;;;;;9.70;7.47;;;13.70;99.90;;;;;;5031997;28;20048;-63
2022/10/31 00:50:40;;;;;;;10.90;8.80;;;13.70;99.90;;;;;;5028688;28;20073;-63
2022/10/31 00:53:06;;;;;;;12.68;8.15;;;13.70;99.90;;;;;;5029315;28;20033;-63
2022/10/31 00:55:32;;;;;;;12.15;7.47;;;13.70;99.90;;;;;;5028984;28;20397;-63
2022/10/31 00:57:58;;;;;;;8.52;7.35;;;13.70;99.90;;;;;;5031577;28;20033;-63
2022/10/31 01:00:23;;;;;;;8.95;6.05;;;13.70;99.90;;;;;;5028998;28;20025;-63
2022/10/31 01:02:49;;;;;;;9.30;6.65;;;13.70;99.90;;;;;;5027564;28;20025;-63
2022/10/31 01:05:15;;;;;;;10.25;6.13;;;13.80;99.90;;;;;;5028764;28;20374;-63
2022/10/31 01:07:41;;;;;;;8.45;6.22;;;13.80;99.90;;;;;;5031272;28;20080;-63
2022/10/31 01:10:08;;;;;;;8.63;6.20;;;13.90;99.90;;;;;;5029982;28;20037;-63
2022/10/31 01:12:37;;;;;;;8.02;6.15;;;13.90;99.90;;;;;;5027896;28;20064;-63
2022/10/31 01:15:03;;;;;;;7.10;5.80;;;13.90;99.90;;;;;;5031308;28;20076;-63
2022/10/31 01:17:29;;;;;;;6.85;5.15;;;13.90;99.90;;;;;;5031979;28;20373;-63
2022/10/31 01:19:54;;;;;;;8.40;6.07;;;13.80;99.90;;;;;;5026139;28;20025;-63
2022/10/31 01:22:20;;;;;;;12.45;5.93;;;13.80;99.90;;;;;;5030865;28;20025;-63
2022/10/31 01:24:46;;;;;;;8.10;5.32;;;13.80;99.90;;;;;;5031039;28;20078;-63
2022/10/31 01:27:11;;;;;;;6.95;5.20;;;13.80;99.90;;;;;;5031229;28;20371;-63
2022/10/31 01:29:37;;;;;;;6.07;4.25;;;13.70;99.90;;;;;;5030916;28;20099;-63
2022/10/31 01:32:02;;;;;;;9.20;5.05;;;13.70;99.90;;;;;;5031300;28;20017;-63
2022/10/31 01:34:28;;;;;;;6.95;4.47;;;13.70;99.90;;;;;;5030682;28;20037;-63
2022/10/31 01:36:53;;;;;;;6.97;5.72;;;13.60;99.90;;;;;;5026738;28;20366;-63
2022/10/31 01:39:19;;;;;;;7.25;4.68;;;13.60;99.90;;;;;;5028311;28;20504;-63
2022/10/31 01:41:48;;;;;;;7.47;4.70;;;13.60;99.90;;;;;;5028464;28;20030;-63
2022/10/31 01:44:14;;;;;;;8.77;5.28;;;13.60;99.90;;;;;;5025662;28;20033;-63
2022/10/31 01:46:51;;;;;;;8.65;5.22;;;13.60;99.90;;;;;;5030546;28;20029;-63
2022/10/31 01:49:24;;;;;;;6.85;4.70;;;13.60;99.90;;;;;;5031046;28;20400;-63
2022/10/31 01:51:57;;;;;;;7.15;4.57;;;13.50;99.90;;;;;;5027965;28;20485;-63
2022/10/31 01:54:29;;;;;;;5.43;3.00;;;13.50;99.90;;;;;;5028280;28;20473;-63
2022/10/31 01:56:57;;;;;;;3.33;2.90;;;13.50;99.90;;;;;;5028037;28;20021;-63
2022/10/31 01:59:25;;;;;;;11.02;7.60;;;13.30;99.90;;;;;;5026453;28;20021;-63
2022/10/31 02:01:51;;;;;;;13.45;8.95;;;13.20;99.90;;;;;;5031568;28;20047;-63
2022/10/31 02:04:18;;;;;;;8.45;6.05;;;13.10;99.90;;;;;;5025059;28;20341;-63
2022/10/31 02:06:57;;;;;;;6.22;5.30;;;13.10;99.90;;;;;;5027527;28;20021;-63
2022/10/31 02:09:24;;;;;;;7.15;4.82;;;13.10;99.90;;;;;;5021539;28;20021;-63
2022/10/31 02:11:52;;;;;;;6.50;4.80;;;13.10;99.90;;;;;;5027250;28;20033;-63
2022/10/31 02:14:20;;;;;;;6.28;4.82;;;13.10;99.90;;;;;;5020703;28;20022;-63
2022/10/31 02:16:46;;;;;;;7.78;5.78;;;13.20;99.90;;;;;;5024730;28;20033;-63
2022/10/31 02:19:18;;;;;;;7.60;5.13;;;13.20;99.90;;;;;;5027726;28;20086;-63
2022/10/31 02:22:08;;;;;;;10.75;7.32;;;13.20;99.90;;;;;;5037452;28;20104;-63
2022/10/31 02:25:06;;;;;;;9.27;6.38;;;13.10;99.90;;;;;;5035864;28;20029;-63
2022/10/31 02:27:53;;;;;;;5.07;4.30;;;13.00;99.90;;;;;;5019966;28;20112;-63
2022/10/31 02:30:23;;;;;;;5.88;3.92;;;13.00;99.90;;;;;;5026797;28;20698;-63
2022/10/31 02:32:51;;;;;;;;;;;12.90;99.90;;;;;;5019186;28;20397;-63
2022/10/31 02:35:41;;;;;;;5.63;4.15;;;12.90;99.90;;;;;;5030891;28;21968;-63
2022/10/31 02:38:42;;;;;;;5.30;4.18;;;12.90;99.90;;;;;;5023046;28;20028;-63
2022/10/31 02:41:31;;;;;;;6.50;4.70;;;12.90;99.90;;;;;;5025043;28;20034;-63
2022/10/31 02:44:19;;;;;;;8.60;6.43;;;12.90;99.90;;;;;;5025141;28;20029;-63
2022/10/31 02:46:50;;;;;;;8.98;6.30;;;12.90;99.90;;;;;;5012131;28;20045;-63
2022/10/31 02:49:32;;;;;;;9.75;6.75;;;12.90;99.90;;;;;;5021803;28;20072;-63
2022/10/31 02:51:58;;;;;;;7.63;5.65;;;12.90;99.90;;;;;;5026191;28;20116;-63
2022/10/31 02:54:26;;;;;;;9.15;6.18;;;12.90;99.90;;;;;;5023379;28;21989;-63
2022/10/31 02:56:56;;;;;;;13.05;9.27;;;12.90;99.90;;;;;;5023679;28;20051;-63
2022/10/31 02:59:23;;;;;;;10.52;6.95;;;12.80;99.90;;;;;;5025735;28;20036;-63
2022/10/31 03:02:06;;;;;;;9.88;7.82;;;12.80;99.90;;;;;;5022622;28;20045;-63
2022/10/31 03:05:06;;;;;;;8.05;6.80;;;12.70;99.90;;;;;;5025324;28;20429;-63
2022/10/31 03:07:50;;;;;;;10.15;7.45;;;12.60;99.90;;;;;;5026700;28;20128;-63
2022/10/31 03:10:37;;;;;;;12.65;9.07;;;12.50;99.90;;;;;;5026602;28;20104;-63
2022/10/31 03:13:21;;;;;;;9.23;7.13;;;12.40;99.90;;;;;;5014559;28;20104;-63
2022/10/31 03:15:54;;;;;;;8.93;7.03;;;12.50;99.90;;;;;;5029309;28;20489;-63
2022/10/31 03:18:32;;;;;;;11.82;8.52;;;12.40;99.90;;;;;;5027746;28;20034;-63
2022/10/31 03:21:14;;;;;;;15.10;9.60;;;12.40;99.90;;;;;;5026148;28;20029;-63
2022/10/31 03:23:42;;;;;;;8.35;7.45;;;12.40;99.90;;;;;;5025537;28;20056;-63
2022/10/31 03:26:09;;;;;;;8.70;6.70;;;12.40;99.90;;;;;;5012518;28;20030;-63
2022/10/31 03:28:49;;;;;;;7.32;5.88;;;12.40;99.90;;;;;;5026284;28;20033;-63
2022/10/31 03:31:18;;;;;;;7.35;6.13;;;12.40;99.90;;;;;;5028966;28;20029;-63
2022/10/31 03:33:46;;;;;;;8.20;5.57;;;12.40;99.90;;;;;;5026460;28;20057;-63
2022/10/31 03:36:15;;;;;;;8.65;5.97;;;12.40;99.90;;;;;;5025677;28;20068;-63
2022/10/31 03:38:42;;;;;;;8.82;6.57;;;12.40;99.90;;;;;;5013056;28;20097;-63
2022/10/31 03:41:13;;;;;;;8.50;6.38;;;12.40;99.90;;;;;;5041786;28;20033;-63
2022/10/31 03:43:43;;;;;;;8.63;7.13;;;12.40;99.90;;;;;;5023182;28;20363;-63
2022/10/31 03:46:09;;;;;;;11.27;9.43;;;12.40;99.90;;;;;;5025472;28;20048;-63
2022/10/31 03:48:35;;;;;;;10.35;8.85;;;12.40;99.90;;;;;;5026093;28;20544;-63
2022/10/31 03:51:22;;;;;;;16.33;11.23;;;12.40;99.90;;;;;;5021344;28;20025;-63
2022/10/31 03:53:59;;;;;;;12.98;10.60;;;12.30;99.90;;;;;;5021118;28;20104;-63
2022/10/31 03:56:40;;;;;;;19.35;13.35;;;12.30;99.90;;;;;;5019955;28;20048;-63
2022/10/31 03:59:21;;;;;;;16.58;12.85;;;12.20;99.90;;;;;;5023076;28;20095;-63
2022/10/31 04:01:51;;;;;;;19.25;11.95;;;12.20;99.90;;;;;;5026497;28;20095;-63
2022/10/31 04:04:19;;;;;;;19.60;15.32;;;12.20;99.90;;;;;;5021634;28;20099;-63
2022/10/31 04:06:47;;;;;;;18.90;15.13;;;12.10;99.90;;;;;;5017817;28;20030;-63
2022/10/31 04:09:13;;;;;;;18.35;14.65;;;12.10;99.90;;;;;;5024496;28;20034;-63
2022/10/31 04:11:47;;;;;;;20.70;15.70;;;12.10;99.90;;;;;;5025927;28;20032;-63
2022/10/31 04:14:13;;;;;;;18.92;14.27;;;12.10;99.90;;;;;;5024628;28;20072;-63
2022/10/31 04:16:41;;;;;;;18.23;14.07;;;12.00;99.90;;;;;;5022814;28;20034;-63
2022/10/31 04:19:07;;;;;;;19.90;15.40;;;12.00;99.90;;;;;;5013619;28;20025;-62
2022/10/31 04:21:32;;;;;;;19.88;14.95;;;12.00;99.90;;;;;;5024226;28;20390;-62
2022/10/31 04:23:58;;;;;;;20.05;15.15;;;11.90;99.90;;;;;;5022032;28;20486;-62
2022/10/31 04:26:24;;;;;;;22.45;15.05;;;11.90;99.90;;;;;;5023163;28;20473;-63
2022/10/31 04:28:49;;;;;;;16.20;13.00;;;11.90;99.90;;;;;;5017726;28;20493;-62
2022/10/31 04:31:15;;;;;;;15.57;11.93;;;11.90;99.90;;;;;;5022974;28;20097;-63
2022/10/31 04:33:41;;;;;;;13.68;11.38;;;11.90;99.90;;;;;;5023222;28;20385;-63
2022/10/31 04:36:06;;;;;;;12.95;9.13;;;11.90;99.90;;;;;;5025730;28;20025;-63
2022/10/31 04:38:32;;;;;;;17.30;12.70;;;12.00;99.90;;;;;;5019507;28;20121;-63
2022/10/31 04:40:58;;;;;;;22.83;15.98;;;12.00;99.90;;;;;;5015397;28;20041;-63
2022/10/31 04:43:24;;;;;;;17.30;13.50;;;11.90;99.90;;;;;;5015756;28;20022;-63
2022/10/31 04:45:49;;;;;;;17.73;13.90;;;11.90;99.90;;;;;;5020571;28;20077;-62
2022/10/31 04:48:15;;;;;;;17.63;13.98;;;11.80;99.90;;;;;;5025551;28;20041;-63
2022/10/31 04:50:40;;;;;;;18.63;13.30;;;11.70;99.90;;;;;;5028805;28;20037;-62
2022/10/31 04:53:06;;;;;;;19.40;11.10;;;11.70;99.90;;;;;;5024953;28;20033;-63
2022/10/31 04:55:31;;;;;;;12.40;9.18;;;11.70;99.90;;;;;;5024740;28;20025;-63
2022/10/31 04:58:02;;;;;;;12.30;9.68;;;11.70;99.90;;;;;;5023195;28;20552;-63
2022/10/31 05:00:28;;;;;;;18.10;13.55;;;11.70;99.90;;;;;;5037172;28;20045;-62
2022/10/31 05:02:56;;;;;;;19.05;14.45;;;11.70;99.90;;;;;;5025711;28;20068;-63
2022/10/31 05:05:24;;;;;;;19.13;14.07;;;11.70;99.90;;;;;;5046809;28;20478;-63
2022/10/31 05:07:50;;;;;;;20.48;14.35;;;11.70;99.90;;;;;;5027157;28;20029;-62
2022/10/31 05:10:25;;;;;;;21.35;14.85;;;11.70;99.90;;;;;;5021086;28;20037;-63
2022/10/31 05:13:02;;;;;;;20.08;14.27;;;11.70;99.90;;;;;;5017011;28;20385;-63
2022/10/31 05:15:28;;;;;;;17.95;13.43;;;11.70;99.90;;;;;;5045544;28;20481;-62
2022/10/31 05:17:54;;;;;;;18.65;13.48;;;11.70;99.90;;;;;;5024710;28;20036;-63
2022/10/31 05:20:23;;;;;;;17.85;12.90;;;11.70;99.90;;;;;;5027086;28;20021;-62
2022/10/31 05:22:54;;;;;;;17.38;12.77;;;11.60;99.90;;;;;;5021054;28;20519;-62
2022/10/31 05:25:22;;;;;;;16.02;11.27;;;11.70;99.90;;;;;;5024827;28;20037;-63
2022/10/31 05:27:49;;;;;;;14.27;10.43;;;11.60;99.90;;;;;;5014183;28;20029;-62
2022/10/31 05:30:18;;;;;;;13.50;9.68;;;11.70;99.90;;;;;;5025184;28;20116;-63
2022/10/31 05:32:46;;;;;;;14.97;12.93;;;11.70;99.90;;;;;;5021208;28;20030;-63
2022/10/31 05:35:17;;;;;;;16.33;11.80;;;11.70;99.90;;;;;;5028088;28;20026;-62
2022/10/31 05:37:43;;;;;;;12.18;9.35;;;11.70;99.90;;;;;;5025963;28;20026;-62
2022/10/31 05:40:11;;;;;;;11.35;9.10;;;11.60;99.90;;;;;;5015341;28;20030;-63
2022/10/31 05:42:39;;;;;;;10.70;8.18;;;11.70;99.90;;;;;;5023061;28;20025;-62
2022/10/31 05:45:06;;;;;;;8.88;6.72;;;11.70;99.90;;;;;;5024374;28;20092;-62
2022/10/31 05:47:34;;;;;;;12.45;8.50;;;11.70;99.90;;;;;;5024635;28;20029;-63
2022/10/31 05:49:59;;;;;;;14.98;12.32;;;11.70;99.90;;;;;;5031152;28;20105;-63
2022/10/31 05:52:25;;;;;;;17.15;12.70;;;11.70;99.90;;;;;;5028026;28;20485;-63
2022/10/31 05:54:50;;;;;;;20.85;14.18;;;11.60;99.90;;;;;;5025361;28;20121;-62
2022/10/31 05:57:16;;;;;;;22.40;14.73;;;11.60;99.90;;;;;;5028833;28;20391;-62
2022/10/31 05:59:41;;;;;;;21.10;15.75;;;11.50;99.90;;;;;;5032343;28;20057;-63
2022/10/31 06:02:07;;;;;;;22.48;14.57;;;11.50;99.90;;;;;;5033887;28;20481;-62
2022/10/31 06:04:32;;;;;;;20.52;15.48;;;11.50;99.90;;;;;;5034209;28;20034;-62
2022/10/31 06:06:58;;;;;;;20.63;15.70;;;11.50;99.90;;;;;;5028462;28;20033;-62
2022/10/31 06:09:28;;;;;;;22.23;14.77;;;11.40;99.90;;;;;;5033332;28;20029;-62
2022/10/31 06:11:54;;;;;;;15.25;11.82;;;11.40;99.90;;;;;;5034498;28;20025;-62
2022/10/31 06:14:19;;;;;;;12.52;10.10;;;11.50;99.90;;;;;;5033631;28;20021;-62
2022/10/31 06:16:45;;;;;;;16.38;11.90;;;11.40;99.90;;;;;;5034061;28;20022;-62
2022/10/31 06:19:13;;;;;;;17.05;10.75;;;11.40;99.90;;;;;;5031643;28;20055;-62
2022/10/31 06:21:38;;;;;;;24.48;10.43;;;11.40;99.90;;;;;;5025878;28;20050;-62
2022/10/31 06:24:04;;;;;;;10.80;8.65;;;11.40;99.90;;;;;;5016994;28;20056;-62
2022/10/31 06:26:30;;;;;;;13.32;10.02;;;11.50;99.90;;;;;;5025336;28;20028;-62
2022/10/31 06:28:55;;;;;;;19.33;13.45;;;11.50;99.90;;;;;;5028957;28;20029;-62
2022/10/31 06:31:21;;;;;;;15.32;12.02;;;11.40;99.90;;;;;;5025555;28;20033;-62
2022/10/31 06:33:46;;;;;;;14.90;11.75;;;11.40;99.90;;;;;;5019201;28;20025;-62
2022/10/31 06:36:12;;;;;;;12.80;9.93;;;11.30;99.90;;;;;;5025117;28;20454;-63
2022/10/31 06:38:44;;;;;;;10.10;8.82;;;11.40;99.90;;;;;;5033284;28;20378;-63
2022/10/31 06:41:15;;;;;;;11.98;9.45;;;11.40;99.90;;;;;;5028506;28;20044;-64
2022/10/31 06:43:40;;;;;;;11.35;8.30;;;11.40;99.90;;;;;;5021534;28;20026;-63
2022/10/31 06:46:06;;;;;;;11.10;8.70;;;11.40;99.90;;;;;;5031928;28;20045;-63
2022/10/31 06:48:32;;;;;;;11.55;8.43;;;11.50;99.90;;;;;;5033561;28;20470;-63
2022/10/31 06:51:01;;;;;;;10.10;7.57;;;11.50;99.90;;;;;;5033237;28;20057;-62
2022/10/31 06:53:29;;;;;;;10.90;8.37;;;11.50;99.90;;;;;;5033305;28;20112;-63
2022/10/31 06:55:55;;;;;;;12.73;8.82;;;11.60;99.90;;;;;;5033331;28;20095;-64
2022/10/31 06:58:21;;;;;;;11.43;7.97;;;11.60;99.90;;;;;;5047131;28;20021;-63
2022/10/31 07:00:46;;;;;;;10.05;8.20;;;11.60;99.90;;;;;;5026492;28;20025;-63
2022/10/31 07:03:13;;;;;;;11.60;8.02;;;11.60;99.90;;;;;;5027051;28;20017;-63
2022/10/31 07:05:40;;;;;;;9.55;7.32;;;11.60;99.90;;;;;;5026082;28;20025;-63
2022/10/31 07:08:08;;;;;;;7.50;6.28;;;11.60;99.90;;;;;;5028564;28;20032;-63
2022/10/31 07:10:35;;;;;;;7.85;6.43;;;11.60;99.90;;;;;;5032534;28;20033;-62
2022/10/31 07:13:03;;;;;;;9.02;6.03;;;11.60;99.90;;;;;;5019635;28;20160;-62
2022/10/31 07:15:33;;;;;;;8.38;5.82;;;11.60;99.90;;;;;;5021989;28;20482;-62
2022/10/31 07:18:03;;;;;;;5.85;4.55;;;11.60;99.90;;;;;;5018841;28;20025;-63
2022/10/31 07:20:29;;;;;;;11.60;8.60;;;11.60;99.90;;;;;;5020888;28;20491;-63
2022/10/31 07:22:54;;;;;;;21.15;16.17;;;11.60;99.90;;;;;;5013845;28;20026;-62
2022/10/31 07:25:20;;;;;;;25.20;17.92;;;11.60;99.90;;;;;;5016141;28;20571;-62
2022/10/31 07:27:46;;;;;;;25.67;18.02;;;11.60;99.90;;;;;;5031269;28;20029;-62
2022/10/31 07:30:13;;;;;;;22.10;16.42;;;11.70;99.90;;;;;;5031151;28;20036;-63
2022/10/31 07:32:40;;;;;;;25.75;18.42;;;11.70;99.90;;;;;;5030356;28;20045;-63
2022/10/31 07:35:08;;;;;;;25.02;18.60;;;11.80;99.90;;;;;;5029649;28;20026;-63
2022/10/31 07:37:33;;;;;;;29.27;20.08;;;11.80;99.90;;;;;;5029751;28;20014;-63
2022/10/31 07:39:59;;;;;;;23.33;18.67;;;11.90;99.90;;;;;;5026469;28;20033;-62
2022/10/31 07:42:27;;;;;;;26.85;21.23;;;11.90;99.90;;;;;;5011487;28;20109;-63
2022/10/31 07:44:53;;;;;;;27.92;20.95;;;12.00;99.90;;;;;;5017533;28;20076;-62
2022/10/31 07:47:18;;;;;;;28.30;22.38;;;12.00;99.90;;;;;;5030734;28;20063;-63
2022/10/31 07:49:44;;;;;;;31.08;20.98;;;12.10;99.90;;;;;;5030079;28;20037;-62
2022/10/31 07:52:12;;;;;;;30.10;21.73;;;12.10;99.90;;;;;;5030465;28;20108;-63
2022/10/31 07:54:37;;;;;;;29.92;21.90;;;12.20;99.90;;;;;;5031084;28;20075;-62
2022/10/31 07:57:03;;;;;;;25.30;21.23;;;12.20;99.90;;;;;;5030720;28;20017;-63
2022/10/31 07:59:28;;;;;;;29.33;22.00;;;12.30;99.90;;;;;;5030880;28;20032;-63
2022/10/31 08:01:54;;;;;;;31.38;22.20;;;12.40;99.90;;;;;;5032191;28;20032;-63
2022/10/31 08:04:19;;;;;;;29.00;21.75;;;12.40;99.90;;;;;;5031162;28;20021;-63
2022/10/31 08:06:48;;;;;;;32.40;23.35;;;12.50;99.90;;;;;;5027040;28;20029;-63
2022/10/31 08:09:13;;;;;;;26.80;20.60;;;12.60;99.90;;;;;;5024708;28;20378;-62
2022/10/31 08:11:39;;;;;;;33.80;22.70;;;12.70;99.90;;;;;;5023399;28;20028;-62
2022/10/31 08:14:04;;;;;;;34.35;24.95;;;12.80;99.90;;;;;;5024889;28;20095;-62
2022/10/31 08:16:30;;;;;;;32.92;25.02;;;12.90;99.90;;;;;;5030260;28;20041;-63
2022/10/31 08:18:55;;;;;;;36.55;26.65;;;13.00;99.90;;;;;;5030125;28;20028;-62
2022/10/31 08:21:22;;;;;;;32.50;24.42;;;13.10;99.90;;;;;;5044940;28;20064;-62
2022/10/31 08:23:49;;;;;;;37.20;25.05;;;13.20;99.90;;;;;;5033511;28;20492;-63
2022/10/31 08:26:15;;;;;;;34.97;26.27;;;13.20;99.90;;;;;;5032395;28;20092;-63
2022/10/31 08:28:40;;;;;;;33.35;25.77;;;13.30;99.90;;;;;;5034853;28;20108;-62
2022/10/31 08:31:16;;;;;;;33.17;25.55;;;13.40;99.90;;;;;;5034500;28;20104;-63
2022/10/31 08:33:41;;;;;;;37.53;25.85;;;13.40;99.90;;;;;;5035761;28;20033;-63
2022/10/31 08:36:07;;;;;;;37.08;25.38;;;13.60;99.90;;;;;;5032951;28;20021;-63
2022/10/31 08:38:33;;;;;;;33.10;24.52;;;13.60;99.90;;;;;;5030441;28;20033;-63
2022/10/31 08:40:58;;;;;;;34.17;24.83;;;13.70;99.90;;;;;;5035800;28;20040;-63
2022/10/31 08:43:24;;;;;;;37.92;26.52;;;13.80;99.90;;;;;;5041414;28;20108;-62
2022/10/31 08:45:49;;;;;;;38.03;24.88;;;13.90;99.90;;;;;;5015778;28;20460;-62
2022/10/31 08:48:16;;;;;;;34.20;25.20;;;14.00;99.90;;;;;;5016323;28;20030;-63
2022/10/31 08:50:44;;;;;;;38.08;27.00;;;14.10;99.90;;;;;;5029236;28;20041;-62
2022/10/31 08:53:12;;;;;;;34.38;26.13;;;14.10;99.90;;;;;;5016520;28;20033;-63
2022/10/31 08:55:39;;;;;;;35.25;24.90;;;14.20;99.90;;;;;;5029351;28;20107;-63
2022/10/31 08:58:06;;;;;;;31.10;22.73;;;14.20;99.90;;;;;;5016521;28;20029;-63
2022/10/31 09:00:33;;;;;;;32.83;22.67;;;14.20;99.90;;;;;;5027861;28;20022;-63
2022/10/31 09:03:01;;;;;;;30.02;22.00;;;14.30;99.90;;;;;;5028173;28;20028;-63
2022/10/31 09:05:27;;;;;;;27.77;19.65;;;14.30;99.90;;;;;;5035064;28;20033;-63
2022/10/31 09:08:00;;;;;;;26.20;19.25;;;14.40;99.90;;;;;;5030978;28;20034;-63
2022/10/31 09:10:27;;;;;;;23.42;17.42;;;14.40;99.90;;;;;;5018212;28;20541;-63
2022/10/31 09:12:58;;;;;;;25.05;17.45;;;14.40;99.90;;;;;;5017607;28;20120;-62
2022/10/31 09:15:25;;;;;;;26.30;17.77;;;14.50;99.90;;;;;;5026071;28;20511;-63
2022/10/31 09:17:50;;;;;;;17.73;13.50;;;14.50;99.90;;;;;;5023068;28;20080;-63
2022/10/31 09:20:23;;;;;;;16.10;12.43;;;14.60;99.90;;;;;;5026515;28;20026;-63
2022/10/31 09:22:56;;;;;;;18.13;11.90;;;14.70;99.90;;;;;;5030294;28;20034;-63
2022/10/31 09:25:22;;;;;;;17.92;12.77;;;14.80;99.90;;;;;;5017157;28;20022;-62
2022/10/31 09:27:48;;;;;;;19.83;13.77;;;14.90;99.90;;;;;;5034412;28;20091;-63
2022/10/31 09:30:13;;;;;;;15.07;11.80;;;15.00;99.90;;;;;;5024390;28;20034;-63
2022/10/31 09:32:39;;;;;;;13.50;10.88;;;15.00;99.90;;;;;;5023117;28;20033;-63
2022/10/31 09:35:05;;;;;;;19.25;14.45;;;15.10;99.90;;;;;;5023000;28;20431;-63
2022/10/31 09:37:30;;;;;;;22.55;16.00;;;15.20;99.90;;;;;;5029781;28;20022;-63
2022/10/31 09:39:56;;;;;;;17.98;13.15;;;15.30;99.90;;;;;;5028052;28;20489;-63
2022/10/31 09:42:27;;;;;;;19.33;14.70;;;15.40;99.90;;;;;;5029245;28;20108;-63
2022/10/31 09:45:01;;;;;;;23.88;16.33;;;15.40;99.90;;;;;;5023678;28;20422;-63
2022/10/31 09:47:51;;;;;;;23.02;15.25;;;15.40;99.90;;;;;;5034249;28;20028;-63
2022/10/31 09:50:21;;;;;;;;;;;15.50;99.90;;;;;;5034548;28;20393;-63
2022/10/31 09:53:00;;;;;;;29.33;19.88;;;15.40;99.90;;;;;;5022661;28;19962;-63
2022/10/31 09:55:41;;;;;;;23.52;17.42;;;15.50;99.90;;;;;;5033938;28;20025;-63
2022/10/31 09:58:16;;;;;;;24.63;16.92;;;15.50;99.90;;;;;;5034341;28;20056;-63
2022/10/31 10:00:43;;;;;;;30.48;21.38;;;15.70;99.90;;;;;;5034332;28;20022;-63
2022/10/31 10:03:32;;;;;;;28.00;19.77;;;15.80;99.90;;;;;;5032386;28;20049;-63
2022/10/31 10:06:18;;;;;;;21.23;15.63;;;15.80;99.90;;;;;;5034336;28;20029;-63
2022/10/31 10:08:44;;;;;;;22.30;16.25;;;15.90;99.90;;;;;;5031773;28;20031;-63
2022/10/31 10:11:46;;;;;;;22.17;15.48;;;16.00;99.90;;;;;;5022844;28;20030;-63
2022/10/31 10:14:26;;;;;;;22.70;14.65;;;16.10;99.90;;;;;;5017435;28;20041;-63
2022/10/31 10:17:13;;;;;;;24.70;16.42;;;16.10;99.90;;;;;;5016664;28;20026;-63
2022/10/31 10:19:53;;;;;;;33.92;23.58;;;16.20;99.90;;;;;;5019364;28;20039;-63
2022/10/31 10:22:32;;;;;;;;;;;16.10;99.90;;;;;;5018890;28;20386;-63
2022/10/31 10:25:26;;;;;;;26.08;16.30;;;16.00;99.90;;;;;;5016883;28;19992;-63
2022/10/31 10:28:19;;;;;;;27.60;14.45;;;16.10;99.90;;;;;;5032216;28;20127;-63
2022/10/31 10:30:54;;;;;;;20.90;14.20;;;16.10;99.90;;;;;;5034047;28;20036;-63
2022/10/31 10:33:39;;;;;;;24.38;16.33;;;16.20;99.90;;;;;;5033988;28;20026;-63
2022/10/31 10:36:16;;;;;;;24.40;15.57;;;16.30;99.90;;;;;;5022859;28;20378;-63
2022/10/31 10:38:53;;;;;;;23.98;15.57;;;16.30;99.90;;;;;;5022693;28;20125;-63
2022/10/31 10:41:21;;;;;;;21.45;15.85;;;16.60;99.90;;;;;;5030133;28;20092;-63
2022/10/31 10:43:50;;;;;;;21.05;15.57;;;16.80;99.90;;;;;;5033512;28;20044;-63
2022/10/31 10:49:51;;;;;;;20.95;14.68;;;17.60;99.90;;;;;;5033794;28;20037;-63
2022/10/31 10:52:16;;;;;;;25.08;15.68;;;17.90;99.90;;;;;;5011670;28;20112;-63
2022/10/31 10:55:05;;;;;;;22.60;16.63;;;18.10;99.90;;;;;;5029784;28;20113;-63
2022/10/31 10:57:54;;;;;;;22.05;16.05;;;18.20;99.90;;;;;;5020629;28;20024;-63
2022/10/31 11:00:24;;;;;;;27.35;17.50;;;18.30;99.90;;;;;;5033061;28;20477;-63
2022/10/31 11:02:50;;;;;;;23.20;18.13;;;18.30;99.90;;;;;;5032955;28;20060;-63
2022/10/31 11:05:42;;;;;;;26.65;19.40;;;18.40;99.90;;;;;;5032710;28;20036;-63
2022/10/31 11:08:08;;;;;;;21.52;14.27;;;18.50;99.90;;;;;;5032015;28;20025;-63
2022/10/31 11:10:35;;;;;;;23.63;17.17;;;18.60;99.90;;;;;;5031730;28;20037;-63
2022/10/31 11:13:11;;;;;;;30.73;19.65;;;18.70;99.90;;;;;;5019502;28;20485;-63
2022/10/31 11:15:50;;;;;;;24.33;17.15;;;18.70;99.90;;;;;;5032554;28;20025;-63
2022/10/31 11:18:25;;;;;;;17.83;13.73;;;18.60;99.90;;;;;;5013573;28;20032;-63
2022/10/31 11:20:53;;;;;;;31.13;20.80;;;18.70;99.90;;;;;;5027046;28;20029;-63
2022/10/31 11:23:20;;;;;;;32.25;19.90;;;18.90;99.90;;;;;;5022754;28;20026;-63
2022/10/31 11:26:01;;;;;;;28.00;19.02;;;19.00;99.90;;;;;;5019693;28;20096;-63
2022/10/31 11:28:32;;;;;;;27.35;18.40;;;19.10;99.90;;;;;;5033064;28;20036;-63
2022/10/31 11:31:16;;;;;;;24.35;16.88;;;19.30;99.90;;;;;;5026621;28;20033;-63
2022/10/31 11:33:49;;;;;;;34.47;22.08;;;19.50;99.90;;;;;;5014835;28;20058;-63
2022/10/31 11:36:44;;;;;;;28.88;19.15;;;19.50;99.90;;;;;;5033017;28;20053;-63
2022/10/31 11:39:22;;;;;;;22.92;16.77;;;19.60;99.90;;;;;;5015927;28;20114;-63
2022/10/31 11:41:49;;;;;;;33.45;21.63;;;19.80;99.90;;;;;;5026766;28;20029;-63
2022/10/31 11:44:26;;;;;;;30.17;21.42;;;19.90;99.40;;;;;;5032455;28;20092;-63
2022/10/31 11:47:03;;;;;;;28.17;19.55;;;19.80;98.60;;;;;;5031361;28;20379;-63
2022/10/31 11:49:41;;;;;;;32.85;23.17;;;19.60;98.80;;;;;;5025639;28;20034;-63
2022/10/31 11:52:30;;;;;;;24.38;18.10;;;19.40;98.60;;;;;;5013193;28;20045;-63
2022/10/31 11:55:14;;;;;;;23.07;16.50;;;19.40;99.10;;;;;;5025215;28;20030;-63
2022/10/31 11:57:46;;;;;;;30.38;18.67;;;19.60;99.30;;;;;;5020733;28;20029;-63
2022/10/31 12:00:32;;;;;;;20.02;12.95;;;19.70;99.00;;;;;;5031434;28;20540;-63
2022/10/31 12:03:36;;;;;;;28.13;19.52;;;20.10;98.90;;;;;;5031053;28;20096;-63
2022/10/31 12:06:14;;;;;;;29.23;20.00;;;20.10;97.50;;;;;;5019027;28;20041;-63
2022/10/31 12:08:41;;;;;;;26.35;19.70;;;20.10;97.40;;;;;;5040954;28;20080;-63
2022/10/31 12:11:41;;;;;;;29.25;19.85;;;20.10;97.30;;;;;;5025779;28;20029;-63
2022/10/31 12:14:19;;;;;;;34.05;22.80;;;19.90;97.30;;;;;;5026314;28;20476;-63
2022/10/31 12:16:55;;;;;;;32.38;22.00;;;19.70;97.40;;;;;;5026105;28;20477;-63
2022/10/31 12:19:37;;;;;;;31.13;20.83;;;19.50;97.60;;;;;;5024252;28;20104;-63
2022/10/31 12:22:12;;;;;;;30.15;21.02;;;20.00;97.50;;;;;;5017663;28;20022;-63
2022/10/31 12:24:50;;;;;;;28.67;20.20;;;20.40;96.30;;;;;;5025384;28;20104;-63
2022/10/31 12:27:51;;;;;;;27.42;18.38;;;20.60;95.10;;;;;;5026232;28;20022;-63
2022/10/31 12:30:34;;;;;;;23.58;16.13;;;20.90;94.90;;;;;;5032072;28;20457;-63
2022/10/31 12:33:17;;;;;;;25.00;16.05;;;21.10;94.30;;;;;;5016654;28;20113;-64
2022/10/31 12:36:10;;;;;;;27.33;17.13;;;21.30;94.30;;;;;;5025144;28;20030;-63
2022/10/31 12:39:07;;;;;;;24.13;16.92;;;21.30;93.50;;;;;;5024219;28;20068;-63
2022/10/31 12:41:55;;;;;;;21.88;14.10;;;21.20;93.40;;;;;;5021733;28;20424;-63
2022/10/31 12:44:47;;;;;;;21.27;12.70;;;21.10;93.80;;;;;;5018267;28;20024;-63
2022/10/31 12:47:27;;;;;;;19.27;13.63;;;21.20;93.60;;;;;;5030825;28;20037;-63
2022/10/31 12:50:22;;;;;;;25.33;13.40;;;21.20;93.50;;;;;;5030868;28;20029;-63
2022/10/31 12:52:55;;;;;;;16.55;11.57;;;21.20;93.20;;;;;;5032366;28;20100;-63
2022/10/31 12:55:37;;;;;;;21.67;14.55;;;21.50;93.20;;;;;;5018651;28;20022;-64
2022/10/31 12:58:10;;;;;;;22.90;14.77;;;22.00;92.30;;;;;;5020920;28;20541;-63